Share

Matsuyama Airport, Japan

10:23 PM JST on April 23, 2014 (GMT +0900)
Iwakuni Marine Corps Air Station (RJOI) Elev 7 ft | 34.14 °N, 132.24 °E | Change Station

Current weather conditions updated 28 minutes ago

Partly Cloudy
Partly Cloudy
59 °F
Feels Like 59 °F
N
7
Wind Variable Wind from WNW
Sunrise 5:29 AM
Sunset 6:46 PM
Moon Last Quarter

Tomorrow is forecast to be nearly the same temperature as today.

Pressure 30.08 in
Visibility 6.2 miles
Clouds Few 3000 ft
Dew Point 41 °F
Humidity 51%
Rainfall 0.00 in
Snow Depth Not available.
UV 0 out of 16
Pollen Not available.
Air Quality Not available.
Flu Activity Not available.
METAR RJOI 231255Z 30006KT 9999 FEW030 15/05 A3007 RMK SLP184 T01500050

More Conditions Fewer Conditions

Pressure 30.08 in
Visibility 6.2 miles
Clouds Few 3000 ft
Dew Point 41 °F
Humidity 51%
Rainfall 0.00 in
Snow Depth Not available.
UV 0 out of 16
Pollen Not available.
Air Quality Not available.
Flu Activity Not available.
METAR RJOI 231255Z 30006KT 9999 FEW030 15/05 A3007 RMK SLP184 T01500050

More Conditions Fewer Conditions

10-Day Weather Forecast

Almanac

Astronomy

Apr. 23, 2014 Rise Set
Actual Time 5:29 AM JST 6:46 PM JST
Civil Twilight 5:03 AM JST 7:12 PM JST
Nautical Twilight 4:32 AM JST 7:43 PM JST
Astronomical Twilight 4:00 AM JST 8:15 PM JST
Moon 1:16 AM JST 12:31 PM JST
Length of Visible Light 14h 08m
Length of Day
13h 16m
Tomorrow will be 1m 56s longer.
Last Quarter, 36% of the Moon is Illuminated
Today
Last Quarter
Apr 29
New
May 6
First Quarter
May 14
Full
May 21
Last Quarter

Yesterday's Extremes

Country Highs Country Lows

Community

  • spring flowers
    spring flowers
  • Earth Day Spectrum Ove' Blue
    Earth Day Spectrum Ove' Blue
  • April Sunset
    April Sunset
  • Waiting..
    Waiting..
  • Sunset...
    Sunset...

WunderPhotos

Upload Photos

1,704,274 photos uploaded!

Nearby

Snow Depth

Not available.

Coastal Water Temperatures

Place Temperature
No Stations Reporting

Earthquake Activity

City Distance Mag. Time & Date
No recent earthquake activity has been reported nearby.
Minimum magnitude displayed is 2.5.

Nearby Weather Stations

There are no personal weather stations in this area.

What do you think?

We're not finished. Please let us know what you like, what you don't like, and what you are still missing.